Time;durP1;ratioP1;P1;durP2;ratioP2;P2;SDS_P1;SDS_P2;PMS_P1;PMS_P2;Temp;Humidity;BMP_temperature;BMP_pressure;BME280_temperature;BME280_humidity;BME280_pressure;Samples;Min_cycle;Max_cycle;Signal;HPM_P1;HPM_P2
2022/10/14 00:01:02;;;;;;;9.70;4.60;;;16.70;60.80;;;;;;5010713;28;20057;-44
2022/10/14 00:03:29;;;;;;;6.53;5.13;;;16.70;60.90;;;;;;5016274;28;20057;-46
2022/10/14 00:05:58;;;;;;;7.20;5.03;;;16.70;60.90;;;;;;5023494;28;20065;-47
2022/10/14 00:08:26;;;;;;;8.80;4.50;;;16.70;61.00;;;;;;5023896;28;20053;-46
2022/10/14 00:10:53;;;;;;;8.38;4.97;;;16.70;61.00;;;;;;5014536;28;20409;-48
2022/10/14 00:13:20;;;;;;;9.27;5.22;;;16.60;61.00;;;;;;5014660;28;20053;-49
2022/10/14 00:15:48;;;;;;;8.02;4.50;;;16.60;61.10;;;;;;5015402;28;20604;-45
2022/10/14 00:18:15;;;;;;;8.82;4.60;;;16.60;61.10;;;;;;5018305;28;20041;-47
2022/10/14 00:20:42;;;;;;;7.32;4.88;;;16.60;61.20;;;;;;5015934;28;20053;-47
2022/10/14 00:23:11;;;;;;;6.40;4.50;;;16.60;61.20;;;;;;5018808;28;20053;-44
2022/10/14 00:25:38;;;;;;;6.40;4.50;;;16.60;61.30;;;;;;5013440;28;20061;-49
2022/10/14 00:28:06;;;;;;;6.65;4.57;;;16.60;61.30;;;;;;5020465;28;20053;-49
2022/10/14 00:30:33;;;;;;;5.72;4.55;;;16.60;61.40;;;;;;5012764;28;20053;-47
2022/10/14 00:33:00;;;;;;;7.05;5.18;;;16.60;61.50;;;;;;5013342;28;20061;-48
2022/10/14 00:35:27;;;;;;;9.07;4.95;;;16.60;61.50;;;;;;5023267;28;20133;-45
2022/10/14 00:37:55;;;;;;;8.02;4.95;;;16.60;61.60;;;;;;5019525;28;20053;-45
2022/10/14 00:40:23;;;;;;;6.65;4.80;;;16.60;61.60;;;;;;5019627;28;20053;-45
2022/10/14 00:42:50;;;;;;;6.70;4.53;;;16.60;61.70;;;;;;5016649;28;20061;-44
2022/10/14 00:45:21;;;;;;;7.20;5.22;;;16.60;61.70;;;;;;5010842;28;20069;-46
2022/10/14 00:47:52;;;;;;;7.88;5.15;;;16.60;61.70;;;;;;5023060;28;20057;-45
2022/10/14 00:50:20;;;;;;;7.90;4.88;;;16.60;61.80;;;;;;5018748;28;21405;-49
2022/10/14 00:52:48;;;;;;;6.57;5.07;;;16.60;61.80;;;;;;5020721;28;20072;-46
2022/10/14 00:55:18;;;;;;;6.53;5.15;;;16.60;61.80;;;;;;5021128;28;20524;-45
2022/10/14 00:57:47;;;;;;;7.72;5.15;;;16.60;61.90;;;;;;5022335;28;20053;-46
2022/10/14 01:00:18;;;;;;;7.80;5.60;;;16.60;61.90;;;;;;5010495;28;20053;-45
2022/10/14 01:02:46;;;;;;;9.57;6.13;;;16.60;62.00;;;;;;5018121;28;20049;-52
2022/10/14 01:05:17;;;;;;;6.97;5.28;;;16.60;62.00;;;;;;5023406;28;20057;-50
2022/10/14 01:07:55;;;;;;;8.73;5.57;;;16.60;62.00;;;;;;5022215;28;20053;-52
2022/10/14 01:10:29;;;;;;;6.85;5.38;;;16.60;62.10;;;;;;5018712;28;20409;-51
2022/10/14 01:13:10;;;;;;;7.13;5.22;;;16.60;62.10;;;;;;5022890;28;20056;-51
2022/10/14 01:15:46;;;;;;;7.80;5.25;;;16.60;62.20;;;;;;5017019;28;20057;-52
2022/10/14 01:18:22;;;;;;;7.28;5.85;;;16.60;62.20;;;;;;5022881;28;20068;-51
2022/10/14 01:21:16;;;;;;;9.40;6.25;;;16.60;62.20;;;;;;5020324;28;20045;-51
2022/10/14 01:24:05;;;;;;;7.87;5.90;;;16.60;62.30;;;;;;5020935;28;20057;-49
2022/10/14 01:26:51;;;;;;;9.32;6.57;;;16.60;62.20;;;;;;5022737;28;20057;-52
2022/10/14 01:29:40;;;;;;;8.13;5.90;;;16.60;62.30;;;;;;5025459;28;20056;-50
2022/10/14 01:32:13;;;;;;;7.45;5.80;;;16.60;62.30;;;;;;5018362;28;20056;-52
2022/10/14 01:34:45;;;;;;;10.98;6.32;;;16.60;62.30;;;;;;5024471;28;20080;-53
2022/10/14 01:37:17;;;;;;;7.45;5.72;;;16.60;62.40;;;;;;5015797;28;20061;-50
2022/10/14 01:39:50;;;;;;;7.35;5.60;;;16.60;62.50;;;;;;5014756;28;20062;-51
2022/10/14 01:42:22;;;;;;;10.65;5.68;;;16.60;62.50;;;;;;5014621;28;20064;-51
2022/10/14 01:44:55;;;;;;;8.45;5.70;;;16.60;62.60;;;;;;5029627;28;20053;-52
2022/10/14 01:47:26;;;;;;;7.50;5.47;;;16.60;62.60;;;;;;5021753;28;20057;-52
2022/10/14 01:49:59;;;;;;;7.32;5.63;;;16.60;62.60;;;;;;5029175;28;20049;-51
2022/10/14 01:52:31;;;;;;;9.18;5.30;;;16.60;62.70;;;;;;5018515;28;20060;-51
2022/10/14 01:55:20;;;;;;;8.05;5.35;;;16.60;62.70;;;;;;5025205;28;20050;-52
2022/10/14 01:57:49;;;;;;;5.90;4.78;;;16.60;62.70;;;;;;5028228;28;20057;-50
2022/10/14 02:00:18;;;;;;;7.40;4.95;;;16.60;62.60;;;;;;5021124;28;20768;-51
2022/10/14 02:02:45;;;;;;;8.18;5.55;;;16.60;62.70;;;;;;5022888;28;20053;-49
2022/10/14 02:05:18;;;;;;;9.13;4.90;;;16.60;62.70;;;;;;5026239;28;20068;-51
2022/10/14 02:07:48;;;;;;;5.95;4.30;;;16.60;62.80;;;;;;5027796;28;20061;-51
2022/10/14 02:10:27;;;;;;;7.13;5.07;;;16.60;62.80;;;;;;5021863;28;20049;-51
2022/10/14 02:13:05;;;;;;;7.10;4.97;;;16.60;62.90;;;;;;5023435;28;20507;-52
2022/10/14 02:15:42;;;;;;;9.80;5.13;;;16.60;62.80;;;;;;5017705;28;20060;-51
2022/10/14 02:18:16;;;;;;;6.63;4.60;;;16.60;62.90;;;;;;5028623;28;20084;-50
2022/10/14 02:20:53;;;;;;;6.90;4.63;;;16.60;62.90;;;;;;5020753;28;20054;-53
2022/10/14 02:23:24;;;;;;;5.10;4.15;;;16.60;62.90;;;;;;5022413;28;20064;-50
2022/10/14 02:25:53;;;;;;;6.90;4.43;;;16.60;62.90;;;;;;5019314;28;20046;-49
2022/10/14 02:28:25;;;;;;;8.52;4.63;;;16.60;62.90;;;;;;5027497;28;20065;-53
2022/10/14 02:30:57;;;;;;;7.78;4.68;;;16.60;63.00;;;;;;5018597;28;20397;-51
2022/10/14 02:33:32;;;;;;;4.88;3.85;;;16.60;63.10;;;;;;5020912;28;20057;-51
2022/10/14 02:36:01;;;;;;;6.05;4.07;;;16.60;63.10;;;;;;5027011;28;20056;-52
2022/10/14 02:38:30;;;;;;;8.35;4.00;;;16.60;63.10;;;;;;5029015;28;20057;-48
2022/10/14 02:41:00;;;;;;;5.30;3.67;;;16.60;63.00;;;;;;5021065;28;20049;-50
2022/10/14 02:43:27;;;;;;;4.75;3.90;;;16.60;63.00;;;;;;5022436;28;20050;-53
2022/10/14 02:46:00;;;;;;;5.72;4.35;;;16.60;63.10;;;;;;5024026;28;20060;-53
2022/10/14 02:48:27;;;;;;;6.72;4.32;;;16.60;63.20;;;;;;5029231;28;20060;-51
2022/10/14 02:50:54;;;;;;;6.15;4.05;;;16.60;63.20;;;;;;5020460;28;20048;-52
2022/10/14 02:53:21;;;;;;;5.60;3.85;;;16.60;63.10;;;;;;5027163;28;20057;-52
2022/10/14 02:55:48;;;;;;;6.50;3.88;;;16.60;63.10;;;;;;5025828;28;20061;-49
2022/10/14 02:58:16;;;;;;;6.05;4.18;;;16.60;63.10;;;;;;5019482;28;20064;-53
2022/10/14 03:00:43;;;;;;;7.45;4.35;;;16.60;63.20;;;;;;5017552;28;20045;-50
2022/10/14 03:03:12;;;;;;;6.13;3.90;;;16.60;63.20;;;;;;5020352;28;20053;-49
2022/10/14 03:05:39;;;;;;;5.03;3.70;;;16.60;63.20;;;;;;5018532;28;20053;-51
2022/10/14 03:08:06;;;;;;;4.85;3.70;;;16.60;63.20;;;;;;5020783;28;20060;-50
2022/10/14 03:10:33;;;;;;;5.15;4.10;;;16.60;63.30;;;;;;5022846;28;20041;-49
2022/10/14 03:13:00;;;;;;;7.85;3.90;;;16.60;63.30;;;;;;5017804;28;20057;-49
2022/10/14 03:15:28;;;;;;;5.00;3.65;;;16.60;63.30;;;;;;5020441;28;20730;-51
2022/10/14 03:17:55;;;;;;;4.30;3.28;;;16.60;63.30;;;;;;5023166;28;20056;-47
2022/10/14 03:20:24;;;;;;;5.28;3.53;;;16.60;63.30;;;;;;5018803;28;20050;-52
2022/10/14 03:22:51;;;;;;;3.80;3.03;;;16.60;63.30;;;;;;5024960;28;20409;-49
2022/10/14 03:25:18;;;;;;;5.53;3.47;;;16.60;63.20;;;;;;5012087;28;20058;-50
2022/10/14 03:27:45;;;;;;;6.88;3.70;;;16.60;63.30;;;;;;5016016;28;20057;-50
2022/10/14 03:30:13;;;;;;;7.00;3.13;;;16.60;63.30;;;;;;5019697;28;20064;-51
2022/10/14 03:32:40;;;;;;;4.35;3.13;;;16.60;63.30;;;;;;5022415;28;20058;-52
2022/10/14 03:35:08;;;;;;;5.45;3.45;;;16.60;63.30;;;;;;5027603;28;20501;-52
2022/10/14 03:37:37;;;;;;;6.10;3.63;;;16.60;63.30;;;;;;5026819;28;20049;-50
2022/10/14 03:40:05;;;;;;;7.03;4.13;;;16.60;63.40;;;;;;5019776;28;20045;-49
2022/10/14 03:42:32;;;;;;;7.25;4.10;;;16.60;63.40;;;;;;5014047;28;20086;-52
2022/10/14 03:44:59;;;;;;;6.05;4.03;;;16.60;63.40;;;;;;5015765;28;20064;-50
2022/10/14 03:47:26;;;;;;;7.93;4.47;;;16.60;63.40;;;;;;5025584;28;20087;-52
2022/10/14 03:49:54;;;;;;;6.38;4.78;;;16.60;63.40;;;;;;5026867;28;20058;-51
2022/10/14 03:52:21;;;;;;;7.15;5.05;;;16.60;63.40;;;;;;5012864;28;20057;-52
2022/10/14 03:54:49;;;;;;;5.97;4.28;;;16.60;63.40;;;;;;5015105;28;20057;-52
2022/10/14 03:57:17;;;;;;;6.80;4.63;;;16.60;63.40;;;;;;5016319;28;20058;-53
2022/10/14 03:59:44;;;;;;;9.18;5.47;;;16.60;63.40;;;;;;5017173;28;20490;-50
2022/10/14 04:02:11;;;;;;;7.38;5.10;;;16.60;63.40;;;;;;5000398;28;20053;-53
2022/10/14 04:04:39;;;;;;;9.27;4.78;;;16.60;63.40;;;;;;5016522;28;20060;-48
2022/10/14 04:07:06;;;;;;;6.78;5.25;;;16.60;63.40;;;;;;5021400;28;20444;-50
2022/10/14 04:09:33;;;;;;;6.82;5.53;;;16.60;63.40;;;;;;5026238;28;20068;-50
2022/10/14 04:12:02;;;;;;;8.30;5.65;;;16.60;63.40;;;;;;5021455;28;20572;-51
2022/10/14 04:14:29;;;;;;;8.23;5.07;;;16.60;63.50;;;;;;5023544;28;20060;-51
2022/10/14 04:16:56;;;;;;;7.40;5.38;;;16.60;63.50;;;;;;5019665;28;20519;-49
2022/10/14 04:19:24;;;;;;;6.70;5.03;;;16.60;63.50;;;;;;5024270;28;20065;-50
2022/10/14 04:21:51;;;;;;;8.68;5.88;;;16.60;63.50;;;;;;5024504;28;20052;-51
2022/10/14 04:24:18;;;;;;;7.80;5.55;;;16.60;63.50;;;;;;5024945;28;20072;-49
2022/10/14 04:26:45;;;;;;;8.70;5.18;;;16.60;63.50;;;;;;5025551;28;20057;-48
2022/10/14 04:29:14;;;;;;;9.05;5.65;;;16.60;63.50;;;;;;5025804;28;20401;-52
2022/10/14 04:31:41;;;;;;;7.43;5.80;;;16.60;63.50;;;;;;5021259;28;20245;-52
2022/10/14 04:34:10;;;;;;;62.03;28.38;;;16.60;63.50;;;;;;5025803;28;20053;-52
2022/10/14 04:36:37;;;;;;;134.85;61.45;;;16.60;63.50;;;;;;5023611;28;20516;-50
2022/10/14 04:39:05;;;;;;;52.35;27.40;;;16.60;63.40;;;;;;5024838;28;20053;-51
2022/10/14 04:41:32;;;;;;;20.92;11.93;;;16.60;63.50;;;;;;5025599;28;20046;-52
2022/10/14 04:43:59;;;;;;;11.55;7.38;;;16.60;64.20;;;;;;5024697;28;20564;-53
2022/10/14 04:46:28;;;;;;;7.60;5.75;;;16.60;63.50;;;;;;5022929;28;20064;-51
2022/10/14 04:48:55;;;;;;;7.60;5.57;;;16.60;63.50;;;;;;5020245;28;20068;-52
2022/10/14 04:51:23;;;;;;;7.50;5.78;;;16.60;63.50;;;;;;5020774;28;20057;-52
2022/10/14 04:53:50;;;;;;;10.13;5.95;;;16.60;64.20;;;;;;5025965;28;20056;-52
2022/10/14 04:56:18;;;;;;;7.00;5.00;;;16.60;63.50;;;;;;5025361;28;20248;-51
2022/10/14 04:58:45;;;;;;;7.00;4.78;;;16.60;63.50;;;;;;5023137;28;20068;-52
2022/10/14 05:01:12;;;;;;;15.73;9.00;;;16.60;63.40;;;;;;5022629;28;20061;-50
2022/10/14 05:03:40;;;;;;;35.70;20.52;;;16.60;63.50;;;;;;5025128;28;20065;-52
2022/10/14 05:06:09;;;;;;;14.20;9.20;;;16.60;63.50;;;;;;5012143;28;20066;-50
2022/10/14 05:08:36;;;;;;;9.82;5.72;;;16.60;63.50;;;;;;5005552;28;20049;-48
2022/10/14 05:11:03;;;;;;;7.60;5.00;;;16.60;63.50;;;;;;4999912;28;20050;-51
2022/10/14 05:13:30;;;;;;;6.60;5.20;;;16.60;63.50;;;;;;4999461;28;20066;-50
2022/10/14 05:15:58;;;;;;;9.57;5.40;;;16.60;63.50;;;;;;4992267;28;20872;-50
2022/10/14 05:18:25;;;;;;;5.57;4.45;;;16.60;63.50;;;;;;4999691;28;20057;-50
2022/10/14 05:20:54;;;;;;;6.25;4.80;;;16.60;63.50;;;;;;4999462;28;20872;-52
2022/10/14 05:23:22;;;;;;;5.68;4.28;;;16.60;63.50;;;;;;5002020;28;20053;-50
2022/10/14 05:25:51;;;;;;;8.75;5.28;;;16.60;63.50;;;;;;4994058;28;20059;-51
2022/10/14 05:28:19;;;;;;;6.28;4.43;;;16.60;63.50;;;;;;5003016;28;20061;-50
2022/10/14 05:30:47;;;;;;;6.60;4.03;;;16.60;63.60;;;;;;4998980;28;20053;-49
2022/10/14 05:33:14;;;;;;;6.72;4.40;;;16.60;63.50;;;;;;5001322;28;20058;-50
2022/10/14 05:35:42;;;;;;;6.90;4.00;;;16.60;63.60;;;;;;4996416;28;20506;-48
2022/10/14 05:38:13;;;;;;;7.60;4.68;;;16.60;63.60;;;;;;5003829;28;20050;-51
2022/10/14 05:40:41;;;;;;;5.93;3.90;;;16.60;63.70;;;;;;4998421;28;20050;-51
2022/10/14 05:43:09;;;;;;;5.97;4.05;;;16.60;63.70;;;;;;4998900;28;20065;-52
2022/10/14 05:45:36;;;;;;;4.82;3.97;;;16.60;63.70;;;;;;5002484;28;20053;-51
2022/10/14 05:48:05;;;;;;;5.13;3.53;;;16.60;63.80;;;;;;5002336;28;20054;-48
2022/10/14 05:50:32;;;;;;;6.63;4.65;;;16.60;63.80;;;;;;4992628;28;20050;-53
2022/10/14 05:53:00;;;;;;;7.57;4.75;;;16.60;63.90;;;;;;5002314;28;20052;-51
2022/10/14 05:55:30;;;;;;;6.68;4.30;;;16.60;63.90;;;;;;4995152;28;20487;-52
2022/10/14 05:57:57;;;;;;;65.43;31.13;;;16.60;63.90;;;;;;4992629;28;20058;-51
2022/10/14 06:00:25;;;;;;;21.40;12.70;;;16.50;63.90;;;;;;4990614;28;20050;-53
2022/10/14 06:02:52;;;;;;;10.27;6.50;;;16.60;63.90;;;;;;4997093;28;20061;-51
2022/10/14 06:05:19;;;;;;;7.90;4.72;;;16.60;63.90;;;;;;4996647;28;20061;-50
2022/10/14 06:07:46;;;;;;;8.38;5.80;;;16.60;64.00;;;;;;5020567;28;20068;-53
2022/10/14 06:10:14;;;;;;;8.63;5.30;;;16.60;64.00;;;;;;5017002;28;20053;-46
2022/10/14 06:12:42;;;;;;;7.35;5.20;;;16.60;64.10;;;;;;5011247;28;20482;-51
2022/10/14 06:15:10;;;;;;;8.85;5.53;;;16.60;64.10;;;;;;4993654;28;20056;-52
2022/10/14 06:17:37;;;;;;;8.52;5.35;;;16.60;64.20;;;;;;5018719;28;20065;-53
2022/10/14 06:20:05;;;;;;;10.70;5.80;;;16.60;64.20;;;;;;5015636;28;20061;-49
2022/10/14 06:22:32;;;;;;;10.80;6.15;;;16.60;64.20;;;;;;5022540;28;20049;-53
2022/10/14 06:25:00;;;;;;;12.23;6.47;;;16.60;64.20;;;;;;5004056;28;20057;-52
2022/10/14 06:27:27;;;;;;;8.73;6.25;;;16.60;64.30;;;;;;5004152;28;20045;-49
2022/10/14 06:29:56;;;;;;;11.98;6.00;;;16.60;64.40;;;;;;5023173;28;20493;-51
2022/10/14 06:32:23;;;;;;;9.73;5.75;;;16.60;64.50;;;;;;5020787;28;20049;-52
2022/10/14 06:34:50;;;;;;;7.60;5.70;;;16.60;64.40;;;;;;5025457;28;20509;-50
2022/10/14 06:37:18;;;;;;;8.32;5.80;;;16.60;64.50;;;;;;5026094;28;20057;-51
2022/10/14 06:39:45;;;;;;;9.77;5.68;;;16.60;64.40;;;;;;5025930;28;20068;-48
2022/10/14 06:42:12;;;;;;;8.35;5.63;;;16.60;64.50;;;;;;5013022;28;20049;-50
2022/10/14 06:44:39;;;;;;;6.47;4.85;;;16.60;64.50;;;;;;5007060;28;20049;-51
2022/10/14 06:47:08;;;;;;;12.07;5.45;;;16.70;64.60;;;;;;5021608;28;20060;-48
2022/10/14 06:49:35;;;;;;;6.30;4.45;;;16.70;64.70;;;;;;5028203;28;20064;-48
2022/10/14 06:52:03;;;;;;;7.10;4.57;;;16.70;64.70;;;;;;5001893;28;20046;-50
2022/10/14 06:54:30;;;;;;;5.93;4.00;;;16.70;64.70;;;;;;5004219;28;20053;-48
2022/10/14 06:56:57;;;;;;;7.53;5.07;;;16.70;64.80;;;;;;5002038;28;20058;-49
2022/10/14 06:59:24;;;;;;;6.15;5.05;;;16.70;64.90;;;;;;5000119;28;20060;-53
2022/10/14 07:01:52;;;;;;;8.55;5.00;;;16.70;64.80;;;;;;5002380;28;20057;-50
2022/10/14 07:04:20;;;;;;;7.20;5.30;;;16.70;64.90;;;;;;4997866;28;20061;-53
2022/10/14 07:06:48;;;;;;;10.15;5.88;;;16.70;64.90;;;;;;5006958;28;20065;-51
2022/10/14 07:09:15;;;;;;;8.10;5.70;;;16.70;64.90;;;;;;4997443;28;20054;-49
2022/10/14 07:11:42;;;;;;;6.35;4.57;;;16.70;64.90;;;;;;5014783;28;20050;-52
2022/10/14 07:14:10;;;;;;;9.32;4.80;;;16.70;65.00;;;;;;4996696;28;20081;-52
2022/10/14 07:16:37;;;;;;;8.75;5.50;;;16.80;65.00;;;;;;5007733;28;20457;-53
2022/10/14 07:19:04;;;;;;;6.47;4.82;;;16.80;65.00;;;;;;5020255;28;20053;-52
2022/10/14 07:21:33;;;;;;;6.18;4.50;;;16.80;65.10;;;;;;5021781;28;20053;-52
2022/10/14 07:24:00;;;;;;;7.85;4.45;;;16.80;65.10;;;;;;5025841;28;20057;-51
2022/10/14 07:26:30;;;;;;;6.20;4.05;;;16.80;65.10;;;;;;5023707;28;20072;-50
2022/10/14 07:28:57;;;;;;;5.57;3.90;;;16.80;65.10;;;;;;5018117;28;20108;-51
2022/10/14 07:31:25;;;;;;;7.75;4.50;;;16.80;65.10;;;;;;5009819;28;20049;-49
2022/10/14 07:33:52;;;;;;;6.57;4.68;;;16.80;65.20;;;;;;5008295;28;20505;-53
2022/10/14 07:36:20;;;;;;;4.63;3.70;;;16.80;65.20;;;;;;5016893;28;20056;-52
2022/10/14 07:38:49;;;;;;;5.72;4.07;;;16.80;65.30;;;;;;5000565;28;20053;-52
2022/10/14 07:41:19;;;;;;;5.63;4.10;;;16.80;65.30;;;;;;5005243;28;20058;-52
2022/10/14 07:43:48;;;;;;;6.78;4.28;;;16.80;65.30;;;;;;5015226;28;20060;-50
2022/10/14 07:46:27;;;;;;;8.20;4.63;;;16.80;66.00;;;;;;5012569;28;20054;-49
2022/10/14 07:48:54;;;;;;;8.70;4.65;;;16.90;65.30;;;;;;5009387;28;20058;-51
2022/10/14 07:51:22;;;;;;;6.43;4.45;;;16.90;65.30;;;;;;4994389;28;20064;-53
2022/10/14 07:53:51;;;;;;;19.40;8.77;;;16.90;65.30;;;;;;5015755;28;20068;-51
2022/10/14 07:56:19;;;;;;;9.93;5.78;;;16.90;65.50;;;;;;5006216;28;20060;-50
2022/10/14 07:58:46;;;;;;;7.15;4.88;;;16.90;65.40;;;;;;5004520;28;20050;-50
2022/10/14 08:01:14;;;;;;;6.22;3.70;;;16.90;65.50;;;;;;5008798;28;20049;-51
2022/10/14 08:03:42;;;;;;;5.70;3.88;;;16.90;65.40;;;;;;5024926;28;20046;-49
2022/10/14 08:06:10;;;;;;;5.20;3.47;;;17.00;65.50;;;;;;4994026;28;20402;-48
2022/10/14 08:08:38;;;;;;;7.20;4.07;;;17.00;65.50;;;;;;5019421;28;20417;-49
2022/10/14 08:11:09;;;;;;;5.07;3.47;;;17.00;65.50;;;;;;5012612;28;20054;-53
2022/10/14 08:13:36;;;;;;;5.63;3.55;;;17.00;65.50;;;;;;5014295;28;20053;-49
2022/10/14 08:16:11;;;;;;;6.65;3.80;;;17.00;65.60;;;;;;5013700;28;20064;-51
2022/10/14 08:18:39;;;;;;;7.40;4.10;;;17.00;65.60;;;;;;5022708;28;20045;-49
2022/10/14 08:21:06;;;;;;;4.53;3.40;;;17.00;65.70;;;;;;5021894;28;20057;-51
2022/10/14 08:23:33;;;;;;;5.35;3.45;;;17.10;65.70;;;;;;5023245;28;20521;-53
2022/10/14 08:26:01;;;;;;;8.63;4.32;;;17.10;65.70;;;;;;5026049;28;20485;-51
2022/10/14 08:28:29;;;;;;;6.30;3.67;;;17.10;65.70;;;;;;5023662;28;20053;-51
2022/10/14 08:30:57;;;;;;;7.75;4.68;;;17.10;65.70;;;;;;5021543;28;20049;-50
2022/10/14 08:33:24;;;;;;;7.18;3.90;;;17.20;65.70;;;;;;5020475;28;20046;-47
2022/10/14 08:35:51;;;;;;;9.50;3.95;;;17.10;65.60;;;;;;5022951;28;20056;-50
2022/10/14 08:38:23;;;;;;;7.00;3.80;;;17.20;65.70;;;;;;5021597;28;20062;-53
2022/10/14 08:41:02;;;;;;;38.20;18.58;;;17.20;65.60;;;;;;5018084;28;20067;-49
2022/10/14 08:43:34;;;;;;;27.25;14.45;;;17.20;65.70;;;;;;5020049;28;20065;-49
2022/10/14 08:46:07;;;;;;;13.32;6.55;;;17.20;65.60;;;;;;5014313;28;20895;-51
2022/10/14 08:48:35;;;;;;;7.05;4.78;;;17.30;65.70;;;;;;5013869;28;20408;-50
2022/10/14 08:51:07;;;;;;;10.02;4.65;;;17.30;65.60;;;;;;5009872;28;20057;-48
2022/10/14 08:53:38;;;;;;;6.88;4.78;;;17.30;65.60;;;;;;5016950;28;20045;-48
2022/10/14 08:56:07;;;;;;;6.78;4.43;;;17.30;65.70;;;;;;5018723;28;20508;-49
2022/10/14 08:58:39;;;;;;;12.10;4.43;;;17.30;65.70;;;;;;5018342;28;20540;-50
2022/10/14 09:01:15;;;;;;;7.95;4.57;;;17.30;65.70;;;;;;5017900;28;20053;-51
2022/10/14 09:03:43;;;;;;;6.90;4.57;;;17.40;65.70;;;;;;5021510;28;20057;-52
2022/10/14 09:06:15;;;;;;;8.75;5.43;;;17.40;65.70;;;;;;5004698;28;20057;-51
2022/10/14 09:08:44;;;;;;;8.52;4.97;;;17.40;65.70;;;;;;4996298;28;20054;-51
2022/10/14 09:11:14;;;;;;;8.48;6.30;;;17.40;65.70;;;;;;4998206;28;20057;-48
2022/10/14 09:13:47;;;;;;;28.70;15.23;;;17.40;65.70;;;;;;5003085;28;20061;-53
2022/10/14 09:16:19;;;;;;;14.65;8.27;;;17.50;65.70;;;;;;4990571;28;20405;-52
2022/10/14 09:18:51;;;;;;;10.10;6.78;;;17.50;65.60;;;;;;4995670;28;20050;-50
2022/10/14 09:21:27;;;;;;;9.45;6.20;;;17.50;65.50;;;;;;5000424;28;20054;-52
2022/10/14 09:24:00;;;;;;;8.60;5.57;;;17.50;65.40;;;;;;4985670;28;20512;-49
2022/10/14 09:26:37;;;;;;;11.93;5.88;;;17.50;65.40;;;;;;4986681;28;21238;-51
2022/10/14 09:29:15;;;;;;;10.75;6.35;;;17.60;65.50;;;;;;4999029;28;20417;-50
2022/10/14 09:31:42;;;;;;;9.00;6.32;;;17.60;65.50;;;;;;4990464;28;21264;-52
2022/10/14 09:34:18;;;;;;;9.63;6.45;;;17.60;65.50;;;;;;4997470;28;20513;-52
2022/10/14 09:36:46;;;;;;;10.18;6.47;;;17.60;65.50;;;;;;4977307;28;20049;-52
2022/10/14 09:39:14;;;;;;;14.77;7.45;;;17.60;65.50;;;;;;4987021;28;20058;-51
2022/10/14 09:41:43;;;;;;;11.27;7.05;;;17.60;65.60;;;;;;5002566;28;20054;-53
2022/10/14 09:44:21;;;;;;;12.35;7.07;;;17.70;65.70;;;;;;5005183;28;20054;-51
2022/10/14 09:46:52;;;;;;;11.20;7.35;;;17.70;66.60;;;;;;5001373;28;20058;-53
2022/10/14 09:49:23;;;;;;;10.73;7.32;;;17.70;65.90;;;;;;5000504;28;20061;-50
2022/10/14 09:51:51;;;;;;;11.63;7.80;;;17.70;66.00;;;;;;4999924;28;20053;-51
2022/10/14 09:54:25;;;;;;;13.00;8.73;;;17.70;66.00;;;;;;5003234;28;20041;-53
2022/10/14 09:57:01;;;;;;;12.02;7.10;;;17.80;65.90;;;;;;5006083;28;20060;-52
2022/10/14 09:59:31;;;;;;;11.38;8.30;;;17.80;65.80;;;;;;4999323;28;20057;-51
2022/10/14 10:02:00;;;;;;;11.68;7.85;;;17.90;65.80;;;;;;5003002;28;20050;-52
2022/10/14 10:04:35;;;;;;;13.90;8.90;;;17.90;65.80;;;;;;5004453;28;20061;-50
2022/10/14 10:07:05;;;;;;;10.90;7.80;;;17.80;65.80;;;;;;5026032;28;20065;-53
2022/10/14 10:09:33;;;;;;;11.20;7.90;;;17.90;66.00;;;;;;5027842;28;20072;-50
2022/10/14 10:12:11;;;;;;;18.23;8.20;;;17.90;66.00;;;;;;5027271;28;20057;-51
2022/10/14 10:14:39;;;;;;;9.63;7.47;;;17.90;66.00;;;;;;5027649;28;20504;-53
2022/10/14 10:17:18;;;;;;;11.75;8.60;;;18.00;66.00;;;;;;5027571;28;20053;-49
2022/10/14 10:19:47;;;;;;;10.23;7.82;;;18.00;66.00;;;;;;5028639;28;20413;-48
2022/10/14 10:22:25;;;;;;;10.40;7.60;;;18.00;65.90;;;;;;5027799;28;20079;-49
2022/10/14 10:25:16;;;;;;;13.02;8.57;;;18.10;66.10;;;;;;5028817;28;20049;-51
2022/10/14 10:27:46;;;;;;;13.52;7.90;;;18.10;65.90;;;;;;5029175;28;20409;-48
2022/10/14 10:30:23;;;;;;;12.27;8.05;;;18.10;65.80;;;;;;5028103;28;20437;-49
2022/10/14 10:33:07;;;;;;;10.65;7.65;;;18.20;66.10;;;;;;5028444;28;20486;-50
2022/10/14 10:35:43;;;;;;;10.93;7.85;;;18.20;65.90;;;;;;5029210;28;20064;-52
2022/10/14 10:38:21;;;;;;;16.67;8.50;;;18.20;65.70;;;;;;5029016;28;20065;-53
2022/10/14 10:41:02;;;;;;;13.98;8.70;;;18.20;65.50;;;;;;5029407;28;20057;-54
2022/10/14 10:43:52;;;;;;;10.38;7.07;;;18.20;65.50;;;;;;5028530;28;20052;-51
2022/10/14 10:46:49;;;;;;;10.88;7.85;;;18.20;65.30;;;;;;5027831;28;20053;-53
2022/10/14 10:49:30;;;;;;;10.75;7.03;;;18.30;65.40;;;;;;5028144;28;20053;-52
2022/10/14 10:52:07;;;;;;;15.55;7.20;;;18.30;65.30;;;;;;5027990;28;20061;-53
2022/10/14 10:54:44;;;;;;;16.52;7.70;;;18.30;65.20;;;;;;5027720;28;20064;-50
2022/10/14 10:57:29;;;;;;;14.18;7.38;;;18.30;65.00;;;;;;5027028;28;20521;-52
2022/10/14 11:00:02;;;;;;;9.15;6.82;;;18.30;65.00;;;;;;5027895;28;20068;-53
2022/10/14 11:02:56;;;;;;;13.02;7.25;;;18.30;64.90;;;;;;5027998;28;20064;-52
2022/10/14 11:05:38;;;;;;;8.07;5.85;;;18.30;64.90;;;;;;4995950;28;20053;-53
2022/10/14 11:13:59;;;;;;;9.70;6.45;;;18.40;64.50;;;;;;4992227;28;20108;-50
2022/10/14 11:16:32;;;;;;;7.65;6.53;;;18.30;64.40;;;;;;5001908;28;20053;-52
2022/10/14 11:19:09;;;;;;;9.15;6.18;;;18.30;64.50;;;;;;5006873;28;20414;-51
2022/10/14 11:21:43;;;;;;;10.75;6.65;;;18.30;64.60;;;;;;5000045;28;20049;-49
2022/10/14 11:24:19;;;;;;;12.10;6.10;;;18.30;64.70;;;;;;5005804;28;20054;-50
2022/10/14 11:26:57;;;;;;;7.63;5.75;;;18.30;64.70;;;;;;5001792;28;20046;-53
2022/10/14 11:29:45;;;;;;;10.23;6.72;;;18.30;64.60;;;;;;5002913;28;20062;-50
2022/10/14 11:32:21;;;;;;;9.88;6.18;;;18.30;64.70;;;;;;4998955;28;20409;-53
2022/10/14 11:35:04;;;;;;;8.02;5.57;;;18.40;64.70;;;;;;5003905;28;20058;-52
2022/10/14 11:37:46;;;;;;;12.05;6.88;;;18.40;64.80;;;;;;5002054;28;20061;-53
2022/10/14 11:40:21;;;;;;;10.00;5.75;;;18.40;64.90;;;;;;4998274;28;20068;-53
2022/10/14 11:42:55;;;;;;;;;;;18.40;64.80;;;;;;5008347;28;20050;-54
2022/10/14 11:45:38;;;;;;;9.30;5.75;;;18.40;64.70;;;;;;4996537;28;19929;-51
2022/10/14 11:48:20;;;;;;;8.63;5.75;;;18.40;64.40;;;;;;4994453;28;20521;-48
2022/10/14 11:50:55;;;;;;;7.53;5.88;;;18.40;64.40;;;;;;4992551;28;20049;-53
2022/10/14 11:53:29;;;;;;;10.15;6.05;;;18.40;64.40;;;;;;4999073;28;20050;-54
2022/10/14 11:56:04;;;;;;;8.35;5.97;;;18.40;64.40;;;;;;4992948;28;20482;-51
2022/10/14 11:58:34;;;;;;;8.20;4.95;;;18.30;64.40;;;;;;5002975;28;20514;-53
2022/10/14 12:01:04;;;;;;;10.80;6.07;;;18.40;64.50;;;;;;4997386;28;20064;-52
2022/10/14 12:03:46;;;;;;;9.82;6.13;;;18.30;64.60;;;;;;5006585;28;20060;-50
2022/10/14 12:06:18;;;;;;;11.27;5.88;;;18.40;64.80;;;;;;5002039;28;20733;-53
2022/10/14 12:08:50;;;;;;;10.57;5.38;;;18.30;64.80;;;;;;5016980;28;20056;-50
2022/10/14 12:11:27;;;;;;;8.07;5.53;;;18.30;64.80;;;;;;5018244;28;20565;-53
2022/10/14 12:14:02;;;;;;;8.05;5.45;;;18.30;64.90;;;;;;5012387;28;20054;-51
2022/10/14 12:16:30;;;;;;;7.78;5.32;;;18.30;64.90;;;;;;5015172;28;20107;-49
2022/10/14 12:18:58;;;;;;;10.35;5.63;;;18.30;64.90;;;;;;5020242;28;20053;-51
2022/10/14 12:21:32;;;;;;;8.57;5.85;;;18.30;65.00;;;;;;5015481;28;20068;-52
2022/10/14 12:24:04;;;;;;;6.68;5.20;;;18.30;65.00;;;;;;5022646;28;20405;-53
2022/10/14 12:26:52;;;;;;;8.25;5.38;;;18.30;65.10;;;;;;5028088;28;20564;-53
2022/10/14 12:29:23;;;;;;;11.50;6.00;;;18.30;65.90;;;;;;5029263;28;20053;-54
2022/10/14 12:32:07;;;;;;;7.35;5.20;;;18.30;65.40;;;;;;5028209;28;20060;-50
2022/10/14 12:34:37;;;;;;;7.85;5.70;;;18.30;65.50;;;;;;5027023;28;20469;-52
2022/10/14 12:37:48;;;;;;;10.00;5.50;;;18.30;65.50;;;;;;5024702;28;20049;-52
2022/10/14 12:40:30;;;;;;;8.18;5.55;;;18.30;65.60;;;;;;5024961;28;20054;-51
2022/10/14 12:43:33;;;;;;;8.27;5.50;;;18.40;65.60;;;;;;5022783;28;20049;-51
2022/10/14 12:46:04;;;;;;;6.32;4.80;;;18.40;65.60;;;;;;5016937;28;20072;-50
2022/10/14 12:48:34;;;;;;;6.68;4.95;;;18.40;65.50;;;;;;5018991;28;20053;-53
2022/10/14 12:51:10;;;;;;;9.10;5.35;;;18.40;65.50;;;;;;5025982;28;20053;-51
2022/10/14 12:53:40;;;;;;;6.93;5.00;;;18.40;65.50;;;;;;5023840;28;20067;-53
2022/10/14 12:56:10;;;;;;;8.75;5.45;;;18.40;65.50;;;;;;5020774;28;20053;-52
2022/10/14 12:58:41;;;;;;;8.32;4.85;;;18.40;65.60;;;;;;5018975;28;20045;-47
2022/10/14 13:01:16;;;;;;;7.82;4.75;;;18.40;65.70;;;;;;5024199;28;20057;-53
2022/10/14 13:03:46;;;;;;;6.53;4.75;;;18.40;65.90;;;;;;5027455;28;20052;-49
2022/10/14 13:06:34;;;;;;;8.52;4.75;;;18.40;65.80;;;;;;5013292;28;20057;-52
2022/10/14 13:09:32;;;;;;;6.03;4.35;;;18.30;65.80;;;;;;5006235;28;20046;-49
2022/10/14 13:12:42;;;;;;;5.78;4.40;;;18.40;66.00;;;;;;5002895;28;20060;-50